Home   Weather   43°12'N, 88°00'W   Past weeks
Flag for USA

Past Weather in 43°12'N, 88°00'W, USA — Yesterday and Last 2 Weeks

Currently: 45 °F. Clear. (Weather station: Milwaukee / Timmerman, USA). See more current weather

Past Weather in 43°12'N, 88°00'W — Graph

°F

43°12'N, 88°00'W Temperature Yesterday

Maximum temperature yesterday: 55 °F (at 9:45 am)
Minimum temperature yesterday: 43 °F (at 2:35 am)
Average temperature yesterday: 48 °F

High & Low Weather Summary for the Past Weeks

 TemperatureHumidityPressure
High79 °F (Oct 2, 2:45 pm)94% (Oct 3, 3:55 am)30.32 "Hg (Oct 3, 3:55 am)
Low41 °F (Oct 16, 4:55 am)31% (Oct 16, 2:45 pm)29.63 "Hg (Oct 11, 11:35 pm)
Average62 °F78%29.95 "Hg
* Reported Oct 1 9:15 pm — Oct 16 9:55 pm, 43°12'N, 88°00'W. Weather by CustomWeather, © 2021

Note: Actual official high and low records may vary slightly from our data, if they occured in-between our weather recording intervals... More about our weather records

43°12'N, 88°00'W Weather History for the Previous 24 Hours

Scroll right to see more
 ConditionsComfort  
Time TempWeatherWind HumidityBarometerVisibility
9:55 pm
Sat, Oct 16
45 °FClear.6 mph61%30.06 "Hg10 mi
9:35 pm45 °FClear.6 mph61%30.06 "Hg10 mi
9:15 pm46 °FClear.6 mph53%30.06 "Hg10 mi
8:55 pm46 °FClear.7 mph57%30.05 "Hg10 mi
7:45 pm52 °FClear.7 mph44%30.03 "Hg10 mi
6:45 pm52 °FClear.6 mph41%30.02 "Hg10 mi
5:45 pm55 °FPassing clouds.12 mph33%30.00 "Hg10 mi
4:45 pm57 °FPartly sunny.15 mph31%29.99 "Hg10 mi
3:45 pm57 °FPartly sunny.22 mph31%29.99 "Hg10 mi
2:45 pm57 °FPartly sunny.17 mph31%29.98 "Hg10 mi
1:45 pm57 °FScattered clouds.23 mph33%29.97 "Hg10 mi
12:45 pm55 °FScattered clouds.17 mph41%29.97 "Hg10 mi
11:45 am54 °FPartly sunny.18 mph47%29.97 "Hg10 mi
10:45 am52 °FScattered clouds.12 mph54%29.98 "Hg10 mi
9:45 am48 °FSunny.12 mph62%29.98 "Hg10 mi
8:45 am45 °FSunny.10 mph71%29.97 "Hg10 mi
7:45 am41 °FSunny.7 mph76%29.95 "Hg10 mi
7:15 am41 °FSunny.8 mph76%29.95 "Hg10 mi
6:55 am41 °FClear.7 mph76%29.95 "Hg10 mi
6:35 am41 °FClear.10 mph76%29.94 "Hg10 mi
6:15 am41 °FClear.9 mph76%29.94 "Hg10 mi
5:55 am41 °FClear.12 mph76%29.93 "Hg10 mi
5:35 am41 °FClear.10 mph76%29.93 "Hg10 mi
5:15 am41 °FClear.8 mph76%29.92 "Hg10 mi
4:55 am41 °FClear.9 mph76%29.92 "Hg10 mi
3:55 am43 °FClear.9 mph66%29.91 "Hg10 mi
3:35 am43 °FClear.8 mph66%29.91 "Hg10 mi
3:15 am43 °FClear.9 mph66%29.91 "Hg10 mi
2:55 am43 °FClear.8 mph66%29.91 "Hg10 mi
2:35 am43 °FClear.7 mph71%29.91 "Hg10 mi
2:15 am43 °FClear.7 mph71%29.91 "Hg10 mi
1:55 am45 °FClear.8 mph66%29.91 "Hg10 mi
1:35 am45 °FClear.7 mph66%29.91 "Hg10 mi
1:15 am45 °FClear.7 mph66%29.91 "Hg10 mi
12:55 am45 °FClear.7 mph71%29.90 "Hg10 mi
12:35 am45 °FClear.5 mph71%29.91 "Hg10 mi
11:55 pm
Fri, Oct 15
46 °FClear.7 mph66%29.90 "Hg10 mi
11:35 pm46 °FClear.7 mph66%29.90 "Hg10 mi
11:15 pm48 °FClear.5 mph66%29.91 "Hg10 mi
Weather by CustomWeather, © 2021

See weather overview